createdAt,value
2023-04-17T00:00:36.469Z,86.96
2023-04-17T00:03:18.808Z,86.81
2023-04-17T00:05:49.220Z,87.13
2023-04-17T00:08:17.579Z,87.12
2023-04-17T00:10:53.801Z,86.99
2023-04-17T00:13:28.979Z,86.84
2023-04-17T00:15:57.892Z,86.58
2023-04-17T00:18:26.467Z,86.79
2023-04-17T00:20:56.385Z,86.89
2023-04-17T00:23:26.564Z,86.68
2023-04-17T00:25:54.996Z,86.53
2023-04-17T00:28:23.891Z,86.85
2023-04-17T00:30:52.287Z,87.55
2023-04-17T00:33:21.891Z,87.77
2023-04-17T00:35:50.192Z,87.52
2023-04-17T00:38:18.558Z,87.31
2023-04-17T00:40:47.146Z,87.30
2023-04-17T00:43:16.042Z,87.38
2023-04-17T00:45:47.642Z,87.45
2023-04-17T00:48:18.297Z,87.30
2023-04-17T00:50:47.032Z,87.35
2023-04-17T00:53:16.371Z,87.34
2023-04-17T00:55:46.357Z,87.13
2023-04-17T00:58:15.699Z,86.98
2023-04-17T01:00:45.062Z,86.98
2023-04-17T01:03:14.807Z,86.62
2023-04-17T01:05:46.835Z,86.48
2023-04-17T01:08:15.821Z,86.31
2023-04-17T01:10:44.440Z,86.46
2023-04-17T01:13:13.032Z,86.40
2023-04-17T01:15:43.162Z,86.30
2023-04-17T01:18:12.605Z,86.27
2023-04-17T01:20:41.356Z,86.18
2023-04-17T01:23:10.001Z,86.47
2023-04-17T01:25:38.740Z,86.52
2023-04-17T01:28:08.211Z,86.63
2023-04-17T01:30:36.560Z,86.44
2023-04-17T01:33:08.190Z,86.18
2023-04-17T01:35:36.631Z,86.02
2023-04-17T01:38:05.261Z,85.99
2023-04-17T01:40:34.162Z,86.03
2023-04-17T01:43:03.166Z,85.93
2023-04-17T01:45:31.653Z,86.22
2023-04-17T01:48:01.214Z,86.40
2023-04-17T01:50:29.644Z,86.20
2023-04-17T01:52:58.278Z,86.17
2023-04-17T01:55:26.827Z,86.10
2023-04-17T01:57:55.529Z,85.73
2023-04-17T02:00:25.433Z,85.77
2023-04-17T02:02:54.485Z,85.79
2023-04-17T02:05:24.759Z,85.90
2023-04-17T02:07:53.250Z,85.47
2023-04-17T02:10:22.140Z,85.01
2023-04-17T02:12:50.625Z,84.57
2023-04-17T02:15:19.326Z,84.21
2023-04-17T02:17:48.059Z,84.27
2023-04-17T02:20:17.222Z,83.99
2023-04-17T02:22:45.808Z,83.87
2023-04-17T02:25:14.295Z,83.58
2023-04-17T02:27:42.783Z,83.69
2023-04-17T02:30:12.273Z,83.59
2023-04-17T02:32:41.322Z,83.51
2023-04-17T02:35:10.187Z,83.60
2023-04-17T02:37:39.490Z,83.62
2023-04-17T02:40:09.862Z,83.49
2023-04-17T02:42:39.020Z,83.14
2023-04-17T02:45:09.575Z,82.93
2023-04-17T02:47:38.629Z,82.85
2023-04-17T02:50:09.184Z,82.92
2023-04-17T02:52:42.909Z,83.03
2023-04-17T02:55:11.187Z,83.04
2023-04-17T02:57:40.387Z,83.16
2023-04-17T03:00:13.070Z,83.38
2023-04-17T03:02:41.910Z,83.43
2023-04-17T03:05:11.709Z,83.36
2023-04-17T03:07:39.966Z,83.27
2023-04-17T03:10:09.717Z,83.06
2023-04-17T03:12:38.166Z,82.97
2023-04-17T03:15:08.966Z,82.90
2023-04-17T03:17:38.475Z,83.44
2023-04-17T03:20:08.424Z,83.62
2023-04-17T03:22:37.300Z,84.10
2023-04-17T03:25:07.160Z,84.18
2023-04-17T03:27:47.227Z,84.35
2023-04-17T03:30:16.300Z,84.58
2023-04-17T03:32:48.310Z,84.79
2023-04-17T03:35:17.616Z,84.80
2023-04-17T03:37:46.073Z,84.76
2023-04-17T03:40:14.649Z,85.03
2023-04-17T03:42:45.656Z,85.16
2023-04-17T03:45:15.096Z,85.29
2023-04-17T03:47:43.904Z,85.56
2023-04-17T03:50:12.306Z,85.65
2023-04-17T03:52:45.892Z,85.61
2023-04-17T03:55:17.083Z,85.82
2023-04-17T03:57:46.234Z,85.84
2023-04-17T04:00:16.434Z,85.80
2023-04-17T04:02:48.700Z,85.63
2023-04-17T04:05:21.001Z,85.60
2023-04-17T04:07:49.306Z,85.93
2023-04-17T04:10:23.412Z,85.94
2023-04-17T04:12:52.191Z,86.14
2023-04-17T04:15:21.489Z,86.28
2023-04-17T04:17:54.217Z,86.60
2023-04-17T04:20:22.771Z,86.52
2023-04-17T04:22:57.533Z,86.38
2023-04-17T04:25:26.785Z,85.99
2023-04-17T04:28:08.491Z,86.08
2023-04-17T04:30:38.952Z,86.08
2023-04-17T04:33:22.659Z,86.22
2023-04-17T04:35:56.286Z,85.88
2023-04-17T04:38:31.114Z,86.20
2023-04-17T04:41:06.528Z,86.60
2023-04-17T04:43:36.991Z,86.60
2023-04-17T04:46:05.980Z,86.49
2023-04-17T04:48:36.292Z,86.41
2023-04-17T04:51:04.576Z,86.46
2023-04-17T04:53:33.268Z,86.64
2023-04-17T04:56:01.760Z,87.18
2023-04-17T04:58:31.566Z,87.28
2023-04-17T05:01:01.961Z,87.94
2023-04-17T05:03:37.595Z,88.32
2023-04-17T05:06:07.267Z,88.83
2023-04-17T05:08:41.765Z,88.66
2023-04-17T05:11:12.364Z,89.14
2023-04-17T05:13:41.028Z,89.19
2023-04-17T05:16:15.081Z,89.08
2023-04-17T05:18:44.447Z,89.34
2023-04-17T05:21:19.479Z,89.32
2023-04-17T05:23:51.058Z,89.44
2023-04-17T05:26:22.207Z,89.52
2023-04-17T05:28:51.076Z,89.71
2023-04-17T05:31:23.501Z,89.91
2023-04-17T05:33:53.170Z,90.03
2023-04-17T05:36:22.562Z,90.49
2023-04-17T05:38:51.882Z,90.13
2023-04-17T05:41:20.877Z,90.11
2023-04-17T05:43:49.671Z,89.96
2023-04-17T05:46:19.661Z,90.17
2023-04-17T05:48:47.979Z,90.11
2023-04-17T05:51:16.468Z,89.88
2023-04-17T05:53:45.153Z,89.87
2023-04-17T05:56:13.440Z,89.90
2023-04-17T05:58:41.818Z,89.88
2023-04-17T06:01:10.511Z,89.98
2023-04-17T06:03:40.151Z,89.88
2023-04-17T06:06:14.758Z,89.56
2023-04-17T06:08:43.249Z,89.43
2023-04-17T06:11:12.139Z,89.29
2023-04-17T06:13:40.723Z,89.20
2023-04-17T06:16:10.143Z,89.25
2023-04-17T06:18:40.275Z,89.61
2023-04-17T06:21:09.268Z,89.52
2023-04-17T06:23:37.752Z,89.23
2023-04-17T06:26:06.344Z,89.53
2023-04-17T06:28:34.663Z,89.26
2023-04-17T06:31:03.016Z,88.68
2023-04-17T06:33:31.586Z,88.65
2023-04-17T06:36:00.079Z,88.65
2023-04-17T06:38:38.599Z,88.50
2023-04-17T06:41:07.184Z,88.52
2023-04-17T06:43:37.715Z,88.12
2023-04-17T06:46:15.161Z,88.06
2023-04-17T06:48:44.304Z,87.67
2023-04-17T06:51:12.696Z,87.71
2023-04-17T06:53:40.876Z,88.02
2023-04-17T06:56:09.056Z,88.02
2023-04-17T06:58:44.142Z,87.12
2023-04-17T07:01:13.970Z,86.65
2023-04-17T07:03:43.607Z,86.44
2023-04-17T07:06:12.213Z,86.74
2023-04-17T07:08:40.587Z,86.67
2023-04-17T07:11:08.884Z,86.42
2023-04-17T07:13:37.374Z,86.50
2023-04-17T07:16:06.956Z,86.51
2023-04-17T07:18:35.570Z,86.28
2023-04-17T07:21:04.456Z,86.03
2023-04-17T07:23:32.834Z,85.39
2023-04-17T07:26:01.332Z,85.29
2023-04-17T07:28:29.608Z,84.86
2023-04-17T07:30:58.927Z,84.60
2023-04-17T07:33:27.403Z,83.98
2023-04-17T07:35:56.103Z,83.43
2023-04-17T07:38:24.377Z,83.31
2023-04-17T07:40:52.554Z,82.98
2023-04-17T07:43:20.895Z,82.74
2023-04-17T07:45:49.347Z,82.35
2023-04-17T07:48:19.249Z,82.68
2023-04-17T07:50:47.753Z,82.69
2023-04-17T07:53:16.622Z,82.73
2023-04-17T07:55:45.009Z,82.16
2023-04-17T07:58:14.225Z,80.35
2023-04-17T08:00:43.565Z,79.44
2023-04-17T08:03:14.706Z,78.69
2023-04-17T08:05:44.287Z,79.13
2023-04-17T08:08:12.785Z,78.83
2023-04-17T08:10:41.482Z,79.13
2023-04-17T08:13:10.056Z,78.41
2023-04-17T08:15:40.985Z,78.13
2023-04-17T08:18:10.394Z,77.73
2023-04-17T08:20:38.889Z,78.13
2023-04-17T08:23:07.381Z,77.62
2023-04-17T08:25:36.179Z,77.73
2023-04-17T08:28:04.550Z,78.17
2023-04-17T08:30:33.082Z,78.06
2023-04-17T08:33:01.787Z,77.68
2023-04-17T08:35:30.525Z,77.17
2023-04-17T08:38:00.355Z,77.06
2023-04-17T08:40:29.036Z,77.19
2023-04-17T08:43:01.614Z,77.62
2023-04-17T08:45:33.998Z,77.59
2023-04-17T08:48:02.410Z,76.49
2023-04-17T08:50:31.885Z,76.88
2023-04-17T08:53:00.069Z,76.94
2023-04-17T08:55:31.210Z,76.35
2023-04-17T08:58:04.826Z,76.51
2023-04-17T09:00:41.690Z,77.11
2023-04-17T09:03:14.327Z,76.73
2023-04-17T09:05:46.490Z,76.14
2023-04-17T09:08:24.337Z,75.79
2023-04-17T09:10:56.207Z,75.39
2023-04-17T09:13:26.254Z,75.32
2023-04-17T09:16:05.782Z,75.43
2023-04-17T09:18:35.863Z,76.36
2023-04-17T09:21:05.764Z,76.94
2023-04-17T09:23:59.691Z,77.10
2023-04-17T09:26:33.590Z,77.35
2023-04-17T09:29:07.952Z,77.59
2023-04-17T09:31:37.769Z,77.52
2023-04-17T09:34:13.461Z,77.75
2023-04-17T09:36:43.685Z,77.96
2023-04-17T09:39:26.413Z,77.96
2023-04-17T09:42:06.537Z,78.26
2023-04-17T09:44:38.266Z,78.33
2023-04-17T09:47:08.334Z,78.28
2023-04-17T09:49:42.697Z,78.22
2023-04-17T09:52:12.198Z,78.11
2023-04-17T09:54:42.338Z,77.42
2023-04-17T09:57:11.593Z,77.41
2023-04-17T09:59:53.216Z,77.51
2023-04-17T10:02:23.167Z,77.62
2023-04-17T10:04:53.135Z,77.87
2023-04-17T10:07:21.942Z,78.17
2023-04-17T10:09:50.404Z,78.14
2023-04-17T10:12:21.265Z,78.30
2023-04-17T10:14:52.098Z,78.10
2023-04-17T10:17:37.518Z,77.28
2023-04-17T10:20:17.913Z,76.99
2023-04-17T10:22:54.539Z,76.65
2023-04-17T10:25:27.250Z,76.69
2023-04-17T10:28:00.073Z,76.45
2023-04-17T10:30:55.632Z,75.39
2023-04-17T10:33:26.140Z,74.91
2023-04-17T10:35:55.214Z,75.48
2023-04-17T10:38:34.265Z,75.46
2023-04-17T10:41:04.499Z,76.06
2023-04-17T10:43:33.262Z,75.73
2023-04-17T10:46:04.070Z,75.43
2023-04-17T10:48:36.883Z,75.43
2023-04-17T10:51:29.361Z,75.42
2023-04-17T10:53:58.825Z,74.99
2023-04-17T10:56:38.736Z,75.26
2023-04-17T10:59:18.434Z,74.15
2023-04-17T11:01:50.284Z,73.48
2023-04-17T11:04:32.323Z,72.35
2023-04-17T11:07:01.135Z,72.02
2023-04-17T11:09:29.912Z,72.37
2023-04-17T11:12:02.146Z,70.42
2023-04-17T11:14:31.361Z,70.20
2023-04-17T11:17:01.360Z,70.67
2023-04-17T11:19:32.277Z,70.93
2023-04-17T11:22:02.962Z,69.92
2023-04-17T11:24:32.488Z,69.65
2023-04-17T11:27:03.986Z,70.30
2023-04-17T11:29:32.596Z,70.45
2023-04-17T11:32:01.531Z,70.64
2023-04-17T11:34:30.841Z,70.84
2023-04-17T11:37:01.138Z,71.20
2023-04-17T11:39:34.138Z,72.03
2023-04-17T11:42:05.781Z,72.24
2023-04-17T11:44:34.813Z,72.68
2023-04-17T11:47:04.157Z,73.28
2023-04-17T11:49:38.196Z,73.47
2023-04-17T11:52:06.684Z,73.54
2023-04-17T11:54:40.013Z,73.66
2023-04-17T11:57:13.610Z,74.07
2023-04-17T11:59:43.045Z,73.95
2023-04-17T12:02:11.534Z,72.95
2023-04-17T12:04:40.612Z,72.51
2023-04-17T12:07:21.821Z,72.62
2023-04-17T12:09:57.959Z,72.53
2023-04-17T12:12:27.012Z,72.52
2023-04-17T12:14:56.025Z,71.52
2023-04-17T12:17:24.360Z,71.04
2023-04-17T12:19:53.739Z,71.23
2023-04-17T12:22:22.193Z,71.42
2023-04-17T12:24:51.291Z,70.10
2023-04-17T12:27:20.194Z,70.20
2023-04-17T12:29:48.690Z,70.01
2023-04-17T12:32:17.367Z,68.76
2023-04-17T12:34:45.861Z,65.57
2023-04-17T12:37:17.652Z,65.40
2023-04-17T12:39:51.148Z,65.63
2023-04-17T12:42:19.911Z,66.12
2023-04-17T12:44:48.709Z,66.27
2023-04-17T12:47:17.292Z,64.97
2023-04-17T12:49:45.682Z,61.87
2023-04-17T12:52:14.051Z,61.87
2023-04-17T12:54:42.452Z,59.34
2023-04-17T12:57:11.454Z,60.51
2023-04-17T12:59:39.993Z,61.84
2023-04-17T13:02:08.258Z,60.36
2023-04-17T13:04:37.018Z,57.31
2023-04-17T13:07:08.481Z,56.16
2023-04-17T13:09:36.745Z,56.67
2023-04-17T13:12:06.640Z,56.64
2023-04-17T13:14:35.871Z,55.83
2023-04-17T13:17:04.570Z,53.64
2023-04-17T13:19:34.373Z,51.63
2023-04-17T13:22:02.972Z,52.68
2023-04-17T13:24:31.449Z,52.65
2023-04-17T13:27:00.065Z,51.84
2023-04-17T13:29:29.128Z,53.03
2023-04-17T13:31:57.724Z,52.06
2023-04-17T13:34:26.315Z,53.11
2023-04-17T13:36:55.679Z,52.65
2023-04-17T13:39:24.125Z,53.66
2023-04-17T13:41:52.702Z,54.29
2023-04-17T13:44:21.499Z,54.72
2023-04-17T13:46:50.095Z,55.07
2023-04-17T13:49:19.693Z,54.63
2023-04-17T13:51:48.283Z,54.76
2023-04-17T13:54:16.780Z,55.62
2023-04-17T13:56:46.046Z,55.23
2023-04-17T13:59:14.724Z,55.76
2023-04-17T14:01:43.610Z,55.56
2023-04-17T14:04:12.339Z,56.03
2023-04-17T14:06:40.943Z,56.80
2023-04-17T14:09:09.334Z,56.68
2023-04-17T14:11:37.515Z,56.71
2023-04-17T14:14:06.620Z,54.11
2023-04-17T14:16:36.019Z,54.02
2023-04-17T14:19:13.338Z,53.12
2023-04-17T14:21:43.121Z,53.26
2023-04-17T14:24:11.818Z,53.98
2023-04-17T14:26:40.205Z,54.28
2023-04-17T14:29:10.893Z,54.65
2023-04-17T14:31:40.088Z,54.35
2023-04-17T14:34:08.650Z,54.44
2023-04-17T14:36:37.118Z,55.06
2023-04-17T14:39:05.500Z,55.41
2023-04-17T14:41:34.558Z,54.99
2023-04-17T14:44:03.095Z,53.74
2023-04-17T14:46:32.367Z,53.84
2023-04-17T14:49:01.117Z,54.02
2023-04-17T14:51:30.616Z,53.56
2023-04-17T14:53:59.384Z,54.16
2023-04-17T14:56:27.697Z,54.55
2023-04-17T14:58:56.167Z,54.38
2023-04-17T15:01:24.413Z,53.81
2023-04-17T15:03:53.123Z,53.59
2023-04-17T15:06:21.925Z,53.38
2023-04-17T15:08:51.130Z,54.10
2023-04-17T15:11:21.075Z,54.65
2023-04-17T15:13:49.330Z,54.56
2023-04-17T15:16:18.583Z,54.37
2023-04-17T15:18:47.022Z,54.37
2023-04-17T15:21:20.033Z,54.74
2023-04-17T15:23:48.495Z,55.25
2023-04-17T15:26:17.086Z,54.68
2023-04-17T15:28:45.273Z,55.22
2023-04-17T15:31:14.065Z,55.33
2023-04-17T15:33:42.962Z,55.24
2023-04-17T15:36:15.391Z,55.30
2023-04-17T15:38:44.533Z,55.45
2023-04-17T15:41:13.194Z,55.27
2023-04-17T15:43:44.168Z,55.83
2023-04-17T15:46:12.798Z,55.66
2023-04-17T15:48:41.458Z,55.49
2023-04-17T15:51:09.732Z,55.76
2023-04-17T15:53:38.116Z,55.83
2023-04-17T15:56:07.727Z,55.32
2023-04-17T15:58:36.232Z,55.32
2023-04-17T16:01:04.555Z,55.88
2023-04-17T16:03:33.326Z,56.26
2023-04-17T16:06:02.716Z,56.60
2023-04-17T16:08:31.294Z,56.88
2023-04-17T16:10:59.986Z,57.43
2023-04-17T16:13:28.770Z,57.58
2023-04-17T16:15:57.517Z,57.44
2023-04-17T16:18:26.507Z,57.93
2023-04-17T16:20:54.856Z,58.64
2023-04-17T16:23:23.640Z,59.13
2023-04-17T16:25:51.919Z,59.65
2023-04-17T16:28:20.232Z,60.12
2023-04-17T16:30:49.313Z,60.64
2023-04-17T16:33:18.115Z,61.25
2023-04-17T16:35:46.690Z,61.50
2023-04-17T16:38:15.188Z,61.88
2023-04-17T16:40:43.359Z,62.44
2023-04-17T16:43:12.160Z,62.65
2023-04-17T16:45:42.188Z,62.97
2023-04-17T16:48:11.535Z,63.24
2023-04-17T16:50:39.969Z,63.70
2023-04-17T16:53:10.825Z,64.08
2023-04-17T16:55:39.081Z,64.49
2023-04-17T16:58:07.472Z,64.91
2023-04-17T17:00:36.399Z,65.50
2023-04-17T17:03:04.920Z,65.80
2023-04-17T17:05:33.450Z,66.06
2023-04-17T17:08:02.107Z,66.38
2023-04-17T17:10:31.131Z,66.76
2023-04-17T17:12:59.628Z,67.06
2023-04-17T17:15:28.308Z,67.52
2023-04-17T17:17:57.073Z,67.61
2023-04-17T17:20:25.694Z,67.98
2023-04-17T17:22:54.176Z,68.15
2023-04-17T17:25:25.659Z,68.29
2023-04-17T17:27:55.869Z,68.50
2023-04-17T17:30:24.460Z,68.69
2023-04-17T17:32:52.894Z,68.70
2023-04-17T17:35:22.547Z,69.14
2023-04-17T17:37:51.139Z,69.24
2023-04-17T17:40:19.734Z,69.40
2023-04-17T17:42:48.116Z,69.46
2023-04-17T17:45:17.030Z,69.67
2023-04-17T17:47:45.946Z,69.83
2023-04-17T17:50:14.521Z,69.74
2023-04-17T17:52:43.096Z,69.95
2023-04-17T17:55:16.027Z,70.24
2023-04-17T17:57:49.223Z,70.17
2023-04-17T18:00:18.794Z,70.45
2023-04-17T18:02:47.768Z,70.84
2023-04-17T18:05:16.481Z,70.81
2023-04-17T18:07:45.071Z,71.02
2023-04-17T18:10:13.662Z,71.25
2023-04-17T18:12:42.544Z,71.20
2023-04-17T18:15:11.714Z,71.37
2023-04-17T18:17:40.202Z,71.52
2023-04-17T18:20:12.299Z,71.53
2023-04-17T18:22:40.683Z,71.59
2023-04-17T18:25:10.288Z,71.75
2023-04-17T18:27:38.679Z,71.74
2023-04-17T18:30:08.865Z,72.15
2023-04-17T18:32:37.670Z,72.11
2023-04-17T18:35:09.434Z,72.44
2023-04-17T18:37:37.863Z,72.40
2023-04-17T18:40:10.808Z,72.44
2023-04-17T18:42:39.535Z,72.79
2023-04-17T18:45:08.735Z,72.87
2023-04-17T18:47:37.373Z,73.07
2023-04-17T18:50:11.153Z,73.06
2023-04-17T18:52:47.632Z,73.20
2023-04-17T18:55:24.062Z,73.20
2023-04-17T18:57:53.208Z,73.09
2023-04-17T19:00:22.441Z,73.15
2023-04-17T19:02:53.670Z,73.30
2023-04-17T19:05:23.051Z,73.43
2023-04-17T19:07:52.312Z,73.52
2023-04-17T19:10:20.822Z,73.66
2023-04-17T19:12:49.831Z,73.56
2023-04-17T19:15:19.436Z,73.58
2023-04-17T19:17:52.439Z,73.81
2023-04-17T19:20:23.174Z,73.90
2023-04-17T19:22:52.068Z,73.99
2023-04-17T19:25:23.380Z,73.51
2023-04-17T19:27:51.899Z,73.48
2023-04-17T19:30:20.592Z,73.36
2023-04-17T19:32:49.430Z,73.88
2023-04-17T19:35:17.871Z,74.05
2023-04-17T19:37:46.363Z,74.69
2023-04-17T19:40:24.338Z,75.48
2023-04-17T19:42:56.321Z,76.40
2023-04-17T19:45:24.606Z,78.19
2023-04-17T19:47:56.359Z,79.30
2023-04-17T19:50:28.335Z,81.10
2023-04-17T19:52:58.689Z,80.91
2023-04-17T19:55:27.051Z,80.64
2023-04-17T19:57:57.273Z,81.62
2023-04-17T20:00:25.653Z,81.42
2023-04-17T20:02:54.125Z,81.57
2023-04-17T20:05:22.528Z,81.64
2023-04-17T20:07:50.826Z,81.91
2023-04-17T20:10:19.199Z,81.79
2023-04-17T20:12:47.789Z,81.43
2023-04-17T20:15:19.961Z,81.21
2023-04-17T20:17:48.805Z,81.01
2023-04-17T20:20:17.138Z,80.83
2023-04-17T20:22:45.735Z,80.63
2023-04-17T20:25:15.159Z,80.98
2023-04-17T20:27:43.413Z,80.64
2023-04-17T20:30:13.045Z,80.61
2023-04-17T20:32:42.935Z,80.56
2023-04-17T20:35:11.841Z,80.36
2023-04-17T20:37:40.849Z,80.20
2023-04-17T20:40:14.163Z,79.93
2023-04-17T20:42:44.366Z,79.76
2023-04-17T20:45:12.980Z,80.34
2023-04-17T20:47:56.393Z,80.00
2023-04-17T20:50:25.892Z,80.05
2023-04-17T20:52:54.486Z,80.13
2023-04-17T20:55:24.459Z,80.11
2023-04-17T20:57:52.992Z,80.28
2023-04-17T21:00:21.578Z,80.50
2023-04-17T21:02:49.948Z,81.07
2023-04-17T21:05:19.575Z,80.71
2023-04-17T21:07:49.589Z,81.23
2023-04-17T21:10:20.509Z,81.84
2023-04-17T21:12:48.825Z,81.84
2023-04-17T21:15:17.721Z,82.22
2023-04-17T21:17:48.037Z,82.72
2023-04-17T21:20:16.640Z,82.95
2023-04-17T21:22:45.735Z,83.47
2023-04-17T21:25:14.130Z,83.50
2023-04-17T21:27:43.955Z,83.38
2023-04-17T21:30:12.935Z,84.18
2023-04-17T21:32:42.690Z,84.47
2023-04-17T21:35:11.547Z,84.40
2023-04-17T21:37:39.828Z,84.49
2023-04-17T21:40:09.090Z,84.61
2023-04-17T21:42:37.314Z,84.48
2023-04-17T21:45:06.425Z,84.22
2023-04-17T21:47:35.780Z,83.94
2023-04-17T21:50:04.640Z,83.79
2023-04-17T21:52:33.106Z,83.53
2023-04-17T21:55:05.314Z,83.27
2023-04-17T21:57:34.630Z,83.26
2023-04-17T22:00:05.374Z,82.90
2023-04-17T22:02:35.182Z,82.91
2023-04-17T22:05:04.096Z,83.07
2023-04-17T22:07:38.134Z,83.26
2023-04-17T22:10:12.382Z,83.18
2023-04-17T22:12:41.067Z,83.02
2023-04-17T22:15:10.160Z,82.80
2023-04-17T22:17:39.221Z,82.85
2023-04-17T22:20:08.913Z,82.76
2023-04-17T22:22:37.364Z,83.05
2023-04-17T22:25:06.626Z,82.89
2023-04-17T22:27:34.961Z,82.63
2023-04-17T22:30:04.257Z,82.50
2023-04-17T22:32:41.003Z,82.41
2023-04-17T22:35:09.724Z,82.45
2023-04-17T22:37:38.108Z,82.26
2023-04-17T22:40:07.561Z,82.22
2023-04-17T22:42:35.770Z,82.31
2023-04-17T22:45:04.984Z,82.24
2023-04-17T22:47:33.602Z,82.18
2023-04-17T22:50:02.683Z,82.10
2023-04-17T22:52:31.172Z,82.77
2023-04-17T22:54:59.454Z,82.78
2023-04-17T22:57:27.841Z,82.34
2023-04-17T22:59:56.330Z,82.46
2023-04-17T23:02:25.025Z,82.65
2023-04-17T23:04:53.471Z,82.76
2023-04-17T23:07:21.999Z,82.68
2023-04-17T23:09:53.145Z,82.75
2023-04-17T23:12:21.837Z,82.70
2023-04-17T23:14:50.217Z,83.06
2023-04-17T23:17:18.805Z,83.13
2023-04-17T23:19:48.211Z,82.95
2023-04-17T23:22:16.941Z,83.28
2023-04-17T23:24:45.696Z,83.19
2023-04-17T23:27:14.198Z,82.84
2023-04-17T23:29:43.464Z,82.89
2023-04-17T23:32:12.160Z,82.98
2023-04-17T23:34:40.590Z,82.98
2023-04-17T23:37:10.076Z,83.20
2023-04-17T23:39:38.361Z,82.98
2023-04-17T23:42:08.162Z,82.58
2023-04-17T23:44:36.606Z,82.81
2023-04-17T23:47:05.408Z,83.05
2023-04-17T23:49:34.458Z,83.05
2023-04-17T23:52:02.842Z,83.18
2023-04-17T23:54:31.328Z,83.06
2023-04-17T23:56:59.515Z,83.14
2023-04-17T23:59:27.685Z,82.80
